Time;durP1;ratioP1;P1;durP2;ratioP2;P2;SDS_P1;SDS_P2;PMS_P1;PMS_P2;Temp;Humidity;BMP_temperature;BMP_pressure;BME280_temperature;BME280_humidity;BME280_pressure;Samples;Min_cycle;Max_cycle;Signal;HPM_P1;HPM_P2
2021/06/22 00:03:58;;;;;;;5.40;4.90;;;;;;;19.81;100.00;98518.13;10255365;29;20210;-80
2021/06/22 00:09:17;;;;;;;6.60;4.70;;;;;;;19.67;100.00;98522.38;10257733;29;20550;-81
2021/06/22 00:14:36;;;;;;;5.20;4.80;;;;;;;19.62;100.00;98527.88;10239622;29;20180;-80
2021/06/22 00:19:55;;;;;;;11.30;5.40;;;;;;;19.50;100.00;98548.38;10216235;29;20183;-80
2021/06/22 00:25:16;;;;;;;5.90;5.20;;;;;;;19.30;100.00;98540.53;10215475;29;20207;-80
2021/06/22 00:30:35;;;;;;;6.20;5.67;;;;;;;19.41;100.00;98548.41;10215626;29;20330;-80
2021/06/22 00:35:54;;;;;;;7.27;5.50;;;;;;;19.25;100.00;98529.25;10215845;29;20246;-80
2021/06/22 00:41:13;;;;;;;6.10;5.50;;;;;;;19.24;100.00;98516.53;10215574;29;20215;-80
2021/06/22 00:46:34;;;;;;;7.13;5.73;;;;;;;19.21;100.00;98505.56;10231234;29;20614;-80
2021/06/22 00:51:53;;;;;;;4.97;4.23;;;;;;;19.03;100.00;98506.38;10215659;29;20175;-80
2021/06/22 00:57:12;;;;;;;4.83;4.33;;;;;;;18.67;100.00;98505.66;10215141;29;20179;-81
2021/06/22 01:02:31;;;;;;;5.23;4.70;;;;;;;18.51;100.00;98509.53;10214300;29;20211;-83
2021/06/22 01:07:52;;;;;;;6.53;5.00;;;;;;;18.61;100.00;98522.22;10214403;29;20199;-82
2021/06/22 01:13:12;;;;;;;5.80;4.00;;;;;;;18.56;100.00;98520.09;10214508;29;20642;-82
2021/06/22 01:18:31;;;;;;;4.67;3.87;;;;;;;18.46;100.00;98523.31;10243257;29;20190;-81
2021/06/22 01:23:50;;;;;;;6.93;4.10;;;;;;;18.32;100.00;98521.16;10254468;29;20210;-82
2021/06/22 01:29:11;;;;;;;11.53;3.77;;;;;;;18.25;100.00;98513.13;10254397;29;20309;-82
2021/06/22 01:34:30;;;;;;;4.30;3.87;;;;;;;18.19;100.00;98505.81;10252193;29;20175;-81
2021/06/22 01:39:50;;;;;;;4.17;3.77;;;;;;;18.11;100.00;98518.47;10252991;29;20253;-79
2021/06/22 01:45:10;;;;;;;5.90;4.00;;;;;;;18.15;100.00;98535.81;10231861;29;20218;-80
2021/06/22 01:50:29;;;;;;;3.27;2.97;;;;;;;18.20;100.00;98544.34;10253887;29;20638;-80
2021/06/22 01:55:52;;;;;;;5.63;3.93;;;;;;;18.19;100.00;98561.50;10216887;29;20539;-80
2021/06/22 02:01:11;;;;;;;4.40;3.07;;;;;;;18.24;100.00;98552.56;10211039;29;20204;-80
2021/06/22 02:06:30;;;;;;;2.77;2.57;;;;;;;18.16;100.00;98545.72;10213874;29;20203;-82
2021/06/22 02:11:49;;;;;;;4.40;4.00;;;;;;;18.28;100.00;98573.47;10227689;29;20186;-79
2021/06/22 02:17:08;;;;;;;4.83;4.33;;;;;;;18.16;100.00;98563.19;10252065;29;20202;-80
2021/06/22 02:22:27;;;;;;;3.97;3.30;;;;;;;18.23;100.00;98564.94;10251950;29;20218;-80
2021/06/22 02:27:46;;;;;;;3.07;2.77;;;;;;;17.87;100.00;98568.41;10253067;29;20665;-81
2021/06/22 02:33:06;;;;;;;3.60;2.30;;;;;;;17.80;100.00;98560.34;10250433;29;20195;-80
2021/06/22 02:38:25;;;;;;;1.90;1.67;;;;;;;17.67;100.00;98561.69;10251632;29;20190;-80
2021/06/22 02:43:45;;;;;;;2.20;2.00;;;;;;;17.71;100.00;98579.00;10220676;29;20206;-80
2021/06/22 02:49:04;;;;;;;2.97;2.07;;;;;;;17.48;100.00;98587.88;10212018;29;20694;-79
2021/06/22 02:54:23;;;;;;;3.20;2.07;;;;;;;17.42;100.00;98575.81;10213012;29;20638;-80
2021/06/22 02:59:42;;;;;;;2.47;1.93;;;;;;;17.41;100.00;98584.59;10212004;29;20635;-80
2021/06/22 03:05:01;;;;;;;2.50;2.30;;;;;;;17.29;100.00;98580.66;10210926;29;20778;-80
2021/06/22 03:10:22;;;;;;;2.87;2.47;;;;;;;17.20;100.00;98585.38;10217179;29;20215;-80
2021/06/22 03:15:41;;;;;;;4.43;2.20;;;;;;;17.24;100.00;98586.81;10255833;28;20676;-80
2021/06/22 03:20:59;;;;;;;2.30;2.00;;;;;;;17.23;100.00;98588.03;10258372;29;20638;-80
2021/06/22 03:26:18;;;;;;;2.70;1.77;;;;;;;17.02;100.00;98605.50;10259182;29;20203;-80
2021/06/22 03:31:37;;;;;;;2.90;1.80;;;;;;;16.96;100.00;98618.41;10256420;29;20226;-79
2021/06/22 03:36:56;;;;;;;3.40;2.03;;;;;;;16.87;100.00;98623.16;10257926;29;20194;-79
2021/06/22 03:42:15;;;;;;;3.40;1.90;;;;;;;16.69;100.00;98614.66;10237562;29;20211;-79
2021/06/22 03:47:34;;;;;;;2.07;1.87;;;;;;;16.73;100.00;98620.09;10217671;29;20171;-79
2021/06/22 03:52:53;;;;;;;1.90;1.53;;;;;;;16.66;100.00;98615.59;10217555;29;20171;-79
2021/06/22 03:58:12;;;;;;;2.20;1.90;;;;;;;16.59;100.00;98615.03;10218085;29;20543;-79
2021/06/22 04:03:31;;;;;;;2.17;1.97;;;;;;;16.69;100.00;98628.56;10215364;29;20223;-79
2021/06/22 04:08:50;;;;;;;2.37;2.17;;;;;;;16.76;100.00;98624.75;10217057;29;20180;-79
2021/06/22 04:14:18;;;;;;;2.33;1.40;;;;;;;16.87;100.00;98609.25;10255410;29;20198;-78
2021/06/22 04:19:37;;;;;;;1.87;1.77;;;;;;;17.04;100.00;98608.59;10255185;29;20183;-79
2021/06/22 04:24:56;;;;;;;1.33;1.10;;;;;;;17.23;100.00;98626.94;10254715;28;20673;-79
2021/06/22 04:30:16;;;;;;;1.43;1.20;;;;;;;17.53;100.00;98617.09;10255873;29;20301;-79
2021/06/22 04:35:35;;;;;;;1.30;1.20;;;;;;;17.63;100.00;98623.03;10256758;29;20562;-80
2021/06/22 04:40:55;;;;;;;2.10;0.97;;;;;;;17.70;100.00;98631.09;10244116;29;20642;-80
2021/06/22 04:46:14;;;;;;;1.47;1.33;;;;;;;17.82;100.00;98630.22;10216404;29;20195;-79
2021/06/22 04:51:33;;;;;;;1.27;1.00;;;;;;;17.98;100.00;98627.16;10217355;29;20195;-79
2021/06/22 04:56:52;;;;;;;1.10;0.93;;;;;;;18.01;100.00;98645.75;10216289;29;20171;-79
2021/06/22 05:02:11;;;;;;;1.20;1.00;;;;;;;18.13;100.00;98638.50;10214572;29;20199;-79
2021/06/22 05:07:31;;;;;;;3.50;1.10;;;;;;;18.26;100.00;98650.31;10215874;29;20187;-79
2021/06/22 05:12:50;;;;;;;1.73;1.30;;;;;;;18.26;100.00;98650.31;10231129;29;20198;-79
2021/06/22 05:18:09;;;;;;;1.27;1.00;;;;;;;18.16;100.00;98654.31;10226863;29;20179;-78
2021/06/22 05:23:28;;;;;;;1.20;0.90;;;;;;;18.32;100.00;98657.63;10226514;29;20211;-79
2021/06/22 05:28:47;;;;;;;1.20;0.90;;;;;;;18.14;100.00;98654.00;10213670;29;20305;-79
2021/06/22 05:34:06;;;;;;;1.40;1.10;;;;;;;18.18;100.00;98649.03;10213633;29;20612;-79
2021/06/22 05:39:26;;;;;;;1.30;0.97;;;;;;;18.45;100.00;98645.13;10214480;29;20187;-80
2021/06/22 05:44:45;;;;;;;1.30;0.97;;;;;;;18.96;100.00;98648.88;10214160;29;20238;-80
2021/06/22 05:50:05;;;;;;;1.20;0.80;;;;;;;19.27;100.00;98649.47;10213300;29;20176;-80
2021/06/22 05:55:24;;;;;;;2.03;1.30;;;;;;;19.64;100.00;98634.97;10224500;29;20641;-79
2021/06/22 06:00:43;;;;;;;5.23;1.00;;;;;;;19.77;100.00;98643.16;10251531;29;20206;-80
2021/06/22 06:06:02;;;;;;;1.20;0.77;;;;;;;19.95;100.00;98646.66;10251899;29;20210;-81
2021/06/22 06:11:22;;;;;;;1.20;1.03;;;;;;;20.08;100.00;98653.59;10253494;29;20182;-81
2021/06/22 06:16:40;;;;;;;1.43;0.87;;;;;;;20.22;100.00;98654.94;10252092;29;20254;-82
2021/06/22 06:21:59;;;;;;;1.30;1.00;;;;;;;20.47;100.00;98671.25;10252170;29;20684;-82
2021/06/22 06:27:22;;;;;;;1.37;0.97;;;;;;;20.68;100.00;98668.13;10253194;29;20646;-81
2021/06/22 06:32:41;;;;;;;1.10;0.97;;;;;;;21.17;100.00;98657.19;10239142;29;20231;-81
2021/06/22 06:38:00;;;;;;;1.10;0.70;;;;;;;21.56;96.18;98653.88;10213457;29;20188;-81
2021/06/22 06:43:19;;;;;;;1.40;1.23;;;;;;;21.75;91.70;98650.41;10213318;29;20207;-81
2021/06/22 06:48:40;;;;;;;1.10;0.90;;;;;;;21.66;93.21;98658.16;10213177;29;20183;-81
2021/06/22 06:53:59;;;;;;;1.27;1.10;;;;;;;21.63;93.31;98669.53;10221043;29;20175;-83
2021/06/22 06:59:18;;;;;;;3.10;1.03;;;;;;;21.81;94.11;98667.31;10219812;29;20175;-81
2021/06/22 07:04:37;;;;;;;1.17;0.90;;;;;;;22.41;91.55;98673.88;10221248;29;20219;-82
2021/06/22 07:09:56;;;;;;;2.57;1.20;;;;;;;22.83;86.55;98683.38;10232708;29;20195;-82
2021/06/22 07:15:16;;;;;;;1.87;1.77;;;;;;;23.11;82.81;98681.72;10218380;29;20651;-82
2021/06/22 07:20:35;;;;;;;1.30;1.10;;;;;;;23.20;69.84;98680.78;10219892;29;20266;-81
2021/06/22 07:25:54;;;;;;;1.40;1.00;;;;;;;23.36;68.50;98669.75;10219799;29;20246;-82
2021/06/22 07:31:13;;;;;;;1.67;1.57;;;;;;;23.80;65.43;98656.94;10216965;29;20235;-81
2021/06/22 07:36:32;;;;;;;1.57;1.47;;;;;;;24.06;63.93;98671.72;10227636;29;20179;-81
2021/06/22 07:41:51;;;;;;;1.80;1.67;;;;;;;24.37;64.12;98663.25;10257831;29;20673;-81
2021/06/22 07:47:10;;;;;;;1.30;1.20;;;;;;;24.87;61.04;98661.50;10256404;29;20612;-83
2021/06/22 07:52:29;;;;;;;2.33;2.13;;;;;;;24.94;62.62;98664.59;10258538;29;20522;-84
2021/06/22 07:57:50;;;;;;;2.63;1.80;;;;;;;25.31;59.86;98665.28;10257414;29;20183;-82
2021/06/22 08:03:15;;;;;;;2.10;1.83;;;;;;;25.33;58.67;98671.94;10216731;29;20215;-82
2021/06/22 08:08:34;;;;;;;2.20;2.00;;;;;;;25.61;57.88;98664.28;10217223;29;20179;-82
2021/06/22 08:13:53;;;;;;;2.37;2.17;;;;;;;26.03;58.84;98669.72;10217799;29;20255;-82
2021/06/22 08:19:12;;;;;;;2.70;2.47;;;;;;;26.68;56.06;98678.13;10217663;29;20199;-82
2021/06/22 08:24:31;;;;;;;2.30;2.10;;;;;;;26.98;54.79;98683.94;10229410;29;20207;-83
2021/06/22 08:29:50;;;;;;;2.57;2.37;;;;;;;27.34;52.11;98677.88;10246688;29;20230;-82
2021/06/22 08:35:10;;;;;;;2.20;2.00;;;;;;;26.64;53.69;98685.31;10255647;29;20183;-82
2021/06/22 08:40:29;;;;;;;2.63;2.43;;;;;;;26.68;53.38;98694.31;10255672;29;20195;-86
2021/06/22 08:45:48;;;;;;;5.70;2.67;;;;;;;26.43;55.59;98697.41;10254720;29;20202;-82
2021/06/22 08:51:08;;;;;;;2.17;2.07;;;;;;;26.11;56.53;98701.75;10255182;29;20249;-82
2021/06/22 08:56:27;;;;;;;2.50;2.30;;;;;;;26.00;55.71;98701.78;10255934;29;20650;-82
2021/06/22 09:01:46;;;;;;;2.47;2.37;;;;;;;26.08;55.72;98700.75;10252509;29;20199;-82
2021/06/22 09:07:05;;;;;;;2.70;2.50;;;;;;;26.14;57.95;98709.22;10254704;29;20191;-82
2021/06/22 09:12:26;;;;;;;3.93;2.40;;;;;;;25.64;56.65;98714.00;10253495;28;20179;-83
2021/06/22 09:17:46;;;;;;;2.07;1.87;;;;;;;25.51;58.26;98722.16;10253137;29;20269;-82
2021/06/22 09:23:15;;;;;;;2.60;2.40;;;;;;;25.80;57.62;98713.28;10253551;29;20205;-82
2021/06/22 09:28:34;;;;;;;2.20;2.00;;;;;;;26.23;56.83;98714.59;10253563;29;20238;-82
2021/06/22 09:33:54;;;;;;;2.70;2.50;;;;;;;26.72;56.28;98714.53;10232486;29;20266;-82
2021/06/22 09:39:13;;;;;;;3.57;2.90;;;;;;;27.90;54.09;98702.50;10215772;29;20175;-82
2021/06/22 09:44:34;;;;;;;2.70;2.50;;;;;;;28.52;49.18;98688.06;10252337;29;20645;-82
2021/06/22 09:49:53;;;;;;;2.07;1.97;;;;;;;29.20;49.93;98690.44;10252957;29;20195;-83
2021/06/22 09:55:12;;;;;;;2.03;1.83;;;;;;;28.76;50.60;98705.06;10254103;29;20171;-83
2021/06/22 10:00:38;;;;;;;2.30;2.10;;;;;;;29.17;50.63;98695.09;10252483;29;20175;-82
2021/06/22 10:06:05;;;;;;;2.83;2.63;;;;;;;29.85;47.32;98697.25;10252019;29;20668;-83
2021/06/22 10:11:42;;;;;;;2.27;1.70;;;;;;;29.52;45.96;98694.91;10241203;29;20183;-83
2021/06/22 10:17:03;;;;;;;2.57;2.40;;;;;;;29.33;46.95;98704.66;10211645;29;20183;-83
2021/06/22 10:22:26;;;;;;;2.80;2.60;;;;;;;29.97;48.24;98703.56;10212812;29;20203;-83
2021/06/22 10:27:49;;;;;;;3.30;3.10;;;;;;;30.94;44.27;98703.91;10221919;29;20180;-82
2021/06/22 10:33:09;;;;;;;2.50;2.40;;;;;;;30.88;43.25;98702.50;10219440;29;20274;-82
2021/06/22 10:38:37;;;;;;;3.27;3.03;;;;;;;30.66;43.56;98702.13;10220717;29;20262;-82
2021/06/22 10:43:56;;;;;;;2.77;2.57;;;;;;;31.15;43.96;98695.53;10219697;29;20211;-81
2021/06/22 10:49:27;;;;;;;2.83;2.70;;;;;;;31.11;45.63;98704.38;10219973;29;20179;-82
2021/06/22 10:54:51;;;;;;;2.93;2.73;;;;;;;30.53;43.75;98702.13;10220845;29;20184;-83
2021/06/22 11:00:10;;;;;;;2.90;2.70;;;;;;;30.68;44.29;98699.53;10219746;29;20585;-83
2021/06/22 11:05:31;;;;;;;2.83;2.63;;;;;;;30.71;44.79;98706.97;10218675;29;20662;-83
2021/06/22 11:10:54;;;;;;;2.90;2.40;;;;;;;30.42;45.67;98707.97;10235606;29;20211;-83
2021/06/22 11:16:13;;;;;;;2.90;2.70;;;;;;;30.10;48.02;98707.22;10258538;29;20553;-82
2021/06/22 11:22:01;;;;;;;3.37;3.07;;;;;;;29.73;45.80;98712.91;10258444;29;20207;-84
2021/06/22 11:27:20;;;;;;;2.60;2.40;;;;;;;28.70;49.00;98714.94;10259359;29;20551;-82
2021/06/22 11:32:39;;;;;;;2.97;2.77;;;;;;;28.32;50.19;98708.34;10257399;29;20235;-83
2021/06/22 11:38:19;;;;;;;3.73;3.43;;;;;;;28.51;49.02;98711.25;10258477;28;20179;-84
2021/06/22 11:44:06;;;;;;;3.70;3.40;;;;;;;28.86;49.46;98711.94;10218858;29;20219;-85
2021/06/22 11:49:42;;;;;;;4.23;3.07;;;;;;;28.01;54.23;98707.28;10216319;29;20188;-83
2021/06/22 11:55:14;;;;;;;3.70;3.40;;;;;;;28.12;50.92;98712.84;10217821;29;20180;-84
2021/06/22 12:00:33;;;;;;;4.47;4.10;;;;;;;27.73;53.61;98703.88;10216203;29;20261;-83
2021/06/22 12:06:02;;;;;;;3.83;3.57;;;;;;;27.21;55.75;98700.31;10216834;29;20203;-84
2021/06/22 12:11:32;;;;;;;3.77;3.47;;;;;;;27.16;58.59;98711.63;10239000;29;20191;-84
2021/06/22 12:16:51;;;;;;;5.40;3.30;;;;;;;27.74;54.20;98711.06;10255262;29;20254;-84
2021/06/22 12:22:12;;;;;;;3.47;3.27;;;;;;;26.93;57.09;98719.38;10256205;29;20207;-85
2021/06/22 12:27:31;;;;;;;4.20;3.87;;;;;;;26.91;58.23;98719.09;10257198;29;20269;-84
2021/06/22 12:32:50;;;;;;;3.80;3.50;;;;;;;26.61;58.30;98723.06;10253345;29;20226;-84
2021/06/22 12:38:12;;;;;;;3.97;3.57;;;;;;;26.29;59.05;98718.94;10255869;29;20191;-85
2021/06/22 12:43:46;;;;;;;3.67;3.47;;;;;;;26.00;60.39;98713.06;10256231;29;20673;-85
2021/06/22 12:49:09;;;;;;;4.27;3.87;;;;;;;25.81;61.59;98717.63;10254321;28;20529;-84
2021/06/22 12:54:30;;;;;;;4.33;4.03;;;;;;;25.46;61.36;98713.69;10255122;29;20649;-83
2021/06/22 12:59:50;;;;;;;4.67;4.37;;;;;;;25.21;63.98;98706.19;10255740;29;20540;-83
2021/06/22 13:05:10;;;;;;;4.43;3.70;;;;;;;25.26;66.88;98703.41;10218380;29;20207;-83
2021/06/22 13:10:29;;;;;;;4.77;4.37;;;;;;;24.90;71.49;98728.00;10215879;29;20187;-83
2021/06/22 13:15:48;;;;;;;4.60;4.20;;;;;;;23.34;90.17;98746.03;10213512;29;20191;-82
2021/06/22 13:21:12;;;;;;;5.83;5.30;;;;;;;23.41;90.33;98739.22;10214621;29;20192;-82
2021/06/22 13:26:31;;;;;;;4.70;4.30;;;;;;;23.23;93.70;98738.75;10215667;29;20180;-83
2021/06/22 13:31:58;;;;;;;6.90;5.60;;;;;;;22.90;100.00;98744.66;10221363;29;20305;-83
2021/06/22 13:37:17;;;;;;;5.50;5.00;;;;;;;22.45;100.00;98746.56;10226751;29;20270;-83
2021/06/22 13:42:36;;;;;;;5.53;5.13;;;;;;;22.16;100.00;98750.16;10214341;29;20610;-83
2021/06/22 13:47:55;;;;;;;8.80;5.40;;;;;;;22.24;100.00;98725.31;10215373;29;20175;-83
2021/06/22 13:53:23;;;;;;;9.43;4.70;;;;;;;22.53;100.00;98726.06;10215818;29;20630;-83
2021/06/22 13:58:43;;;;;;;5.50;5.20;;;;;;;22.74;100.00;98730.44;10215588;29;20183;-83
2021/06/22 14:04:02;;;;;;;5.43;4.80;;;;;;;22.63;100.00;98727.47;10240676;29;20214;-84
2021/06/22 14:09:21;;;;;;;6.00;5.50;;;;;;;22.53;100.00;98737.28;10254392;29;20202;-83
2021/06/22 14:14:40;;;;;;;5.33;4.83;;;;;;;22.35;100.00;98731.91;10254404;29;20206;-84
2021/06/22 14:19:59;;;;;;;6.00;5.50;;;;;;;22.06;100.00;98742.34;10252759;29;20175;-84
2021/06/22 14:25:18;;;;;;;6.40;5.80;;;;;;;21.68;100.00;98750.84;10252868;29;20677;-84
2021/06/22 14:30:37;;;;;;;4.43;4.03;;;;;;;21.51;100.00;98735.72;10250995;29;20214;-84
2021/06/22 14:35:57;;;;;;;4.40;4.00;;;;;;;21.62;100.00;98740.78;10211896;29;20586;-84
2021/06/22 14:41:16;;;;;;;4.20;3.40;;;;;;;21.92;100.00;98755.09;10213843;29;20191;-85
2021/06/22 14:46:36;;;;;;;3.97;3.57;;;;;;;21.81;100.00;98759.72;10211633;29;20180;-84
2021/06/22 14:51:54;;;;;;;4.70;3.90;;;;;;;21.51;100.00;98771.31;10212918;29;20184;-84
2021/06/22 14:57:16;;;;;;;4.00;3.27;;;;;;;21.22;100.00;98777.63;10214631;29;20643;-84
2021/06/22 15:02:35;;;;;;;3.20;3.00;;;;;;;21.15;100.00;98782.81;10228098;29;20214;-84
2021/06/22 15:07:55;;;;;;;4.80;2.90;;;;;;;20.81;100.00;98783.34;10256649;28;20175;-84
2021/06/22 15:13:14;;;;;;;3.10;2.90;;;;;;;20.55;100.00;98798.19;10263662;29;20171;-83
2021/06/22 15:18:33;;;;;;;2.40;2.20;;;;;;;20.49;100.00;98803.66;10263678;29;20174;-83
2021/06/22 15:23:52;;;;;;;3.27;2.97;;;;;;;20.51;100.00;98820.72;10264603;29;20301;-83
2021/06/22 15:29:30;;;;;;;3.07;2.87;;;;;;;20.29;100.00;98808.22;10265768;29;20215;-83
2021/06/22 15:34:50;;;;;;;3.67;3.37;;;;;;;20.06;100.00;98797.75;10225954;29;20192;-84
2021/06/22 15:40:12;;;;;;;4.00;3.60;;;;;;;19.84;100.00;98827.06;10224419;29;20666;-83
2021/06/22 15:45:32;;;;;;;3.00;2.70;;;;;;;19.70;100.00;98833.28;10222780;29;20203;-83
2021/06/22 15:50:52;;;;;;;2.80;2.60;;;;;;;19.76;100.00;98837.00;10218071;29;20171;-84
2021/06/22 15:56:11;;;;;;;5.83;3.10;;;;;;;19.51;100.00;98857.59;10223044;29;20187;-85
2021/06/22 16:01:31;;;;;;;3.07;2.80;;;;;;;19.41;100.00;98877.59;10226827;29;20211;-84
2021/06/22 16:06:50;;;;;;;2.50;2.30;;;;;;;19.46;100.00;98893.75;10217411;29;20639;-84
2021/06/22 16:12:10;;;;;;;3.03;2.80;;;;;;;19.51;100.00;98860.41;10221453;29;20278;-86
2021/06/22 16:17:29;;;;;;;6.97;3.63;;;;;;;19.62;100.00;98840.44;10254826;29;20186;-84
2021/06/22 16:22:49;;;;;;;3.00;2.80;;;;;;;19.87;100.00;98845.69;10231362;28;20219;-85
2021/06/22 16:28:09;;;;;;;6.63;4.23;;;;;;;20.37;100.00;98832.56;10220641;29;20601;-84
2021/06/22 16:33:28;;;;;;;4.97;3.60;;;;;;;20.70;100.00;98827.78;10223889;29;20662;-84
2021/06/22 16:38:47;;;;;;;4.43;4.03;;;;;;;20.75;100.00;98826.34;10217505;29;20187;-84
2021/06/22 16:44:06;;;;;;;3.50;3.30;;;;;;;20.96;100.00;98842.91;10223709;29;20218;-85
2021/06/22 16:49:25;;;;;;;3.93;3.17;;;;;;;21.44;100.00;98856.47;10252887;29;20183;-86
2021/06/22 16:54:44;;;;;;;3.07;2.87;;;;;;;21.50;100.00;98850.94;10256440;29;20179;-86
2021/06/22 17:00:04;;;;;;;3.13;2.93;;;;;;;21.73;100.00;98836.97;10256003;29;20198;-84
2021/06/22 17:05:23;;;;;;;3.00;2.80;;;;;;;21.94;100.00;98833.81;10255388;29;20206;-84
2021/06/22 17:10:43;;;;;;;3.50;3.30;;;;;;;21.57;100.00;98833.81;10256180;29;20191;-86
2021/06/22 17:16:03;;;;;;;3.30;3.00;;;;;;;21.72;100.00;98830.59;10252623;29;20269;-86
2021/06/22 17:21:23;;;;;;;3.77;3.33;;;;;;;22.39;100.00;98824.97;10253013;29;20645;-85
2021/06/22 17:26:42;;;;;;;4.27;2.60;;;;;;;23.31;100.00;98852.91;10255615;29;20187;-86
2021/06/22 17:32:01;;;;;;;3.17;2.87;;;;;;;23.38;100.00;98858.16;10252024;28;20219;-85
2021/06/22 17:37:20;;;;;;;2.80;2.60;;;;;;;22.84;100.00;98863.69;10255761;29;20622;-86
2021/06/22 17:42:40;;;;;;;3.50;3.20;;;;;;;22.38;100.00;98873.88;10255552;29;20206;-86
2021/06/22 17:48:01;;;;;;;4.17;3.40;;;;;;;21.63;100.00;98890.72;10251649;29;20186;-85
2021/06/22 17:53:20;;;;;;;2.60;2.40;;;;;;;21.23;100.00;98896.69;10213825;29;20199;-87
2021/06/22 17:58:39;;;;;;;3.03;2.73;;;;;;;20.87;100.00;98901.69;10214824;29;20223;-86
2021/06/22 18:03:58;;;;;;;2.77;2.57;;;;;;;20.76;100.00;98914.59;10212107;29;20674;-86
2021/06/22 18:09:17;;;;;;;3.67;2.33;;;;;;;20.71;100.00;98913.19;10214408;29;20171;-86
2021/06/22 18:14:36;;;;;;;2.47;2.27;;;;;;;20.45;100.00;98916.84;10213147;29;20631;-86
2021/06/22 18:19:55;;;;;;;3.67;3.33;;;;;;;20.30;100.00;98925.09;10212408;29;20191;-86
2021/06/22 18:25:16;;;;;;;2.70;2.30;;;;;;;20.26;100.00;98938.47;10213407;29;20211;-85
2021/06/22 18:30:38;;;;;;;3.50;2.57;;;;;;;20.03;100.00;98941.88;10213348;29;20215;-86
2021/06/22 18:35:57;;;;;;;3.70;3.40;;;;;;;19.76;100.00;98943.84;10213289;29;20207;-86
2021/06/22 18:41:17;;;;;;;3.20;3.00;;;;;;;19.55;100.00;98960.69;10213131;29;20530;-86
2021/06/22 18:46:36;;;;;;;3.67;3.37;;;;;;;19.45;100.00;98968.28;10217914;29;20191;-85
2021/06/22 18:51:55;;;;;;;3.60;3.30;;;;;;;19.44;100.00;98960.38;10222126;29;20202;-85
2021/06/22 18:57:14;;;;;;;2.90;2.60;;;;;;;19.39;100.00;98964.56;10260350;29;20195;-85
2021/06/22 19:02:33;;;;;;;3.10;2.90;;;;;;;19.31;100.00;98965.28;10259593;29;20206;-86
2021/06/22 19:07:52;;;;;;;3.57;3.30;;;;;;;19.28;100.00;98974.59;10260072;29;20206;-85
2021/06/22 19:13:11;;;;;;;3.50;3.00;;;;;;;19.22;100.00;98979.22;10259329;29;20174;-86
2021/06/22 19:18:32;;;;;;;3.60;3.30;;;;;;;19.15;100.00;98971.13;10258322;29;20597;-86
2021/06/22 19:23:51;;;;;;;3.50;3.20;;;;;;;19.09;100.00;98972.16;10241011;29;20203;-86
2021/06/22 19:29:10;;;;;;;3.70;3.40;;;;;;;18.93;100.00;98973.16;10220171;29;20262;-86
2021/06/22 19:34:29;;;;;;;3.63;3.33;;;;;;;18.74;100.00;98973.53;10219430;29;20195;-85
2021/06/22 19:39:48;;;;;;;5.00;3.00;;;;;;;18.64;100.00;98985.84;10219395;29;20184;-86
2021/06/22 19:45:11;;;;;;;4.10;3.47;;;;;;;18.48;100.00;98978.50;10218525;29;20290;-84
2021/06/22 19:50:30;;;;;;;4.37;3.97;;;;;;;18.37;100.00;98968.97;10218383;29;20195;-86
2021/06/22 19:55:49;;;;;;;3.30;3.10;;;;;;;18.29;100.00;98986.38;10250967;28;20182;-85
2021/06/22 20:01:12;;;;;;;2.97;2.77;;;;;;;18.24;100.00;98986.97;10257309;29;20570;-85
2021/06/22 20:06:32;;;;;;;3.07;2.87;;;;;;;18.09;100.00;98991.47;10261421;29;20585;-86
2021/06/22 20:11:51;;;;;;;3.40;3.10;;;;;;;17.98;100.00;98988.25;10259083;29;20657;-86
2021/06/22 20:17:10;;;;;;;4.33;3.90;;;;;;;17.93;100.00;98994.41;10257859;29;20182;-86
2021/06/22 20:22:29;;;;;;;4.33;3.93;;;;;;;17.89;100.00;98997.28;10244126;29;20263;-84
2021/06/22 20:28:37;;;;;;;4.10;3.80;;;;;;;17.83;100.00;98996.31;10257532;29;20572;-86
2021/06/22 20:33:58;;;;;;;5.60;5.10;;;;;;;17.85;100.00;98993.88;10255474;29;20191;-86
2021/06/22 20:39:17;;;;;;;4.67;4.27;;;;;;;17.74;100.00;99001.03;10253776;29;20257;-85
2021/06/22 20:44:36;;;;;;;3.87;3.57;;;;;;;17.75;100.00;99002.59;10255002;29;20677;-86
2021/06/22 20:49:55;;;;;;;4.03;3.73;;;;;;;17.67;100.00;99012.38;10254171;29;20697;-86
2021/06/22 20:55:14;;;;;;;4.00;3.70;;;;;;;17.58;100.00;99019.84;10255386;29;20214;-85
2021/06/22 21:00:34;;;;;;;10.87;4.67;;;;;;;17.47;100.00;99017.41;10253731;29;20202;-86
2021/06/22 21:05:53;;;;;;;8.80;3.80;;;;;;;17.31;100.00;99037.00;10254986;28;20647;-85
2021/06/22 21:11:12;;;;;;;8.33;4.70;;;;;;;17.18;100.00;99032.63;10255631;29;20212;-85
2021/06/22 21:16:31;;;;;;;4.60;3.90;;;;;;;17.11;100.00;99035.63;10228958;29;20187;-86
2021/06/22 21:21:50;;;;;;;5.73;4.27;;;;;;;17.11;100.00;99046.75;10215677;29;20207;-85
2021/06/22 21:27:09;;;;;;;7.83;3.97;;;;;;;17.08;100.00;99058.75;10216168;29;20180;-85
2021/06/22 21:32:28;;;;;;;6.60;5.00;;;;;;;17.01;100.00;99048.63;10213879;29;20231;-84
2021/06/22 21:37:47;;;;;;;4.70;4.20;;;;;;;17.04;100.00;99053.28;10214679;29;20254;-86
2021/06/22 21:43:06;;;;;;;4.93;4.03;;;;;;;17.10;100.00;99073.78;10214882;29;20682;-85
2021/06/22 21:48:26;;;;;;;4.67;3.47;;;;;;;17.13;100.00;99061.75;10214333;29;20221;-85
2021/06/22 21:53:45;;;;;;;3.30;3.10;;;;;;;17.07;100.00;99069.09;10215398;29;20188;-84
2021/06/22 21:59:26;;;;;;;4.90;4.40;;;;;;;17.13;100.00;99058.22;10214779;29;20195;-85
2021/06/22 22:04:46;;;;;;;3.80;3.50;;;;;;;17.04;100.00;99064.41;10213048;29;20204;-85
2021/06/22 22:10:07;;;;;;;3.93;3.60;;;;;;;17.02;100.00;99068.84;10213494;29;20187;-85
2021/06/22 22:15:26;;;;;;;3.77;3.40;;;;;;;16.98;100.00;99066.19;10232286;29;20570;-85
2021/06/22 22:20:45;;;;;;;3.77;3.47;;;;;;;16.96;100.00;99060.28;10255792;29;20206;-85
2021/06/22 22:26:05;;;;;;;6.03;3.83;;;;;;;16.91;100.00;99077.50;10257234;29;20663;-85
2021/06/22 22:31:24;;;;;;;7.57;4.20;;;;;;;16.92;100.00;99089.41;10254812;29;20630;-85
2021/06/22 22:36:43;;;;;;;5.30;4.30;;;;;;;16.94;100.00;99098.06;10257811;29;20191;-85
2021/06/22 22:42:02;;;;;;;8.80;4.07;;;;;;;16.99;100.00;99089.97;10256475;29;20206;-86
2021/06/22 22:47:22;;;;;;;4.23;3.90;;;;;;;16.99;100.00;99101.09;10218910;29;20195;-86
2021/06/22 22:52:41;;;;;;;9.10;4.97;;;;;;;17.03;100.00;99104.56;10216638;29;20176;-84
2021/06/22 22:58:00;;;;;;;6.63;4.10;;;;;;;17.11;100.00;99105.13;10216140;29;20207;-84
2021/06/22 23:03:19;;;;;;;10.03;4.63;;;;;;;17.18;100.00;99100.13;10213633;29;20251;-84
2021/06/22 23:08:38;;;;;;;11.53;5.47;;;;;;;17.15;100.00;99086.34;10215561;29;20183;-84
2021/06/22 23:13:57;;;;;;;5.50;5.00;;;;;;;17.14;100.00;99087.56;10223171;29;20179;-84
2021/06/22 23:19:16;;;;;;;7.60;5.23;;;;;;;17.09;100.00;99088.09;10251107;29;20571;-86
2021/06/22 23:24:35;;;;;;;4.97;4.57;;;;;;;17.11;100.00;99099.56;10251247;29;20210;-84
2021/06/22 23:29:54;;;;;;;6.00;5.33;;;;;;;17.14;100.00;99098.69;10253089;28;20246;-85
2021/06/22 23:35:13;;;;;;;10.80;5.90;;;;;;;17.19;100.00;99087.81;10259679;29;20174;-84
2021/06/22 23:40:32;;;;;;;6.17;5.10;;;;;;;17.13;100.00;99111.78;10259165;29;20642;-86
2021/06/22 23:45:53;;;;;;;7.07;5.67;;;;;;;17.11;100.00;99111.47;10241808;29;20218;-85
2021/06/22 23:51:12;;;;;;;5.90;4.80;;;;;;;17.11;100.00;99113.47;10258065;29;20206;-85
2021/06/22 23:56:31;;;;;;;6.20;5.60;;;;;;;17.07;100.00;99116.34;10258451;29;20206;-85
